Time;durP1;ratioP1;P1;durP2;ratioP2;P2;SDS_P1;SDS_P2;PMS_P1;PMS_P2;Temp;Humidity;BMP_temperature;BMP_pressure;BME280_temperature;BME280_humidity;BME280_pressure;Samples;Min_cycle;Max_cycle;Signal;HPM_P1;HPM_P2
2021/07/10 04:00:41;;;;;;;117.60;24.30;;;15.00;99.90;;;;;;5829414;23;20497;-66
2021/07/10 04:03:08;;;;;;;104.60;22.03;;;15.00;99.90;;;;;;4997060;28;20457;-67
2021/07/10 04:05:35;;;;;;;74.33;24.10;;;15.00;99.90;;;;;;4997024;28;20434;-66
2021/07/10 04:08:02;;;;;;;115.47;22.53;;;15.00;99.90;;;;;;4996864;28;20459;-67
2021/07/10 04:10:29;;;;;;;83.97;22.90;;;14.90;99.90;;;;;;4996950;28;20453;-65
2021/07/10 04:12:56;;;;;;;88.07;24.10;;;14.80;99.90;;;;;;4998143;28;20972;-65
2021/07/10 04:15:23;;;;;;;60.07;23.20;;;14.80;99.90;;;;;;4997689;28;20458;-67
2021/07/10 04:17:51;;;;;;;41.63;24.30;;;14.70;99.90;;;;;;4996681;28;20462;-66
2021/07/10 04:20:19;;;;;;;25.13;22.40;;;14.70;99.90;;;;;;4996334;28;20972;-66
2021/07/10 04:22:47;;;;;;;31.10;22.70;;;14.70;99.90;;;;;;4996551;28;20489;-66
2021/07/10 04:25:16;;;;;;;128.87;24.13;;;14.70;99.90;;;;;;4996640;28;20782;-65
2021/07/10 04:27:45;;;;;;;27.00;22.67;;;14.70;99.90;;;;;;4996416;28;20453;-65
2021/07/10 04:30:14;;;;;;;26.87;24.10;;;14.70;99.90;;;;;;4996366;28;20992;-65
2021/07/10 04:32:40;;;;;;;25.97;23.27;;;14.70;99.90;;;;;;4996426;28;20454;-65
2021/07/10 04:35:10;;;;;;;28.20;24.97;;;14.70;99.90;;;;;;4996290;28;20481;-65
2021/07/10 04:37:37;;;;;;;25.53;23.03;;;14.70;99.90;;;;;;4996467;28;20464;-65
2021/07/10 04:40:06;;;;;;;26.30;23.47;;;14.70;99.90;;;;;;4996133;28;20941;-66
2021/07/10 04:42:33;;;;;;;65.43;24.33;;;14.60;99.90;;;;;;4995821;28;21019;-66
2021/07/10 04:44:59;;;;;;;123.80;26.27;;;14.70;99.90;;;;;;4996318;28;20457;-66
2021/07/10 04:47:26;;;;;;;40.87;23.50;;;14.60;99.90;;;;;;4998574;28;20520;-66
2021/07/10 04:49:53;;;;;;;90.90;24.50;;;14.60;99.90;;;;;;4996126;28;20511;-65
2021/07/10 04:52:21;;;;;;;303.53;31.00;;;14.70;99.90;;;;;;4995708;28;20477;-65
2021/07/10 04:54:48;;;;;;;161.93;26.17;;;14.70;99.90;;;;;;4995904;28;20478;-66
2021/07/10 04:57:15;;;;;;;311.47;29.50;;;14.60;99.90;;;;;;4995745;28;20949;-66
2021/07/10 04:59:41;;;;;;;100.73;24.60;;;14.70;99.90;;;;;;4995876;28;20458;-65
2021/07/10 05:02:08;;;;;;;197.50;26.80;;;14.70;99.90;;;;;;4995727;28;20493;-66
2021/07/10 05:04:35;;;;;;;145.93;26.40;;;14.70;99.90;;;;;;4995170;28;20450;-66
2021/07/10 05:07:01;;;;;;;111.87;24.90;;;14.70;99.90;;;;;;4995687;28;20453;-65
2021/07/10 05:09:30;;;;;;;170.60;25.47;;;14.80;99.90;;;;;;4995898;28;20462;-65
2021/07/10 05:11:57;;;;;;;71.20;22.73;;;15.00;99.90;;;;;;4995617;28;20548;-67
2021/07/10 05:14:24;;;;;;;65.50;22.90;;;15.10;99.90;;;;;;4995503;28;20477;-65
2021/07/10 05:16:50;;;;;;;26.43;20.33;;;15.30;99.90;;;;;;4995649;28;20469;-65
2021/07/10 05:19:17;;;;;;;66.37;20.73;;;15.50;99.90;;;;;;4995724;28;20453;-66
2021/07/10 05:21:44;;;;;;;75.77;21.93;;;15.60;99.90;;;;;;4995430;28;20485;-66
2021/07/10 05:24:11;;;;;;;80.80;22.23;;;15.60;99.90;;;;;;4995696;28;20449;-66
2021/07/10 05:26:39;;;;;;;90.07;23.37;;;15.60;99.90;;;;;;4995239;28;20458;-66
2021/07/10 05:29:06;;;;;;;76.03;23.90;;;15.70;99.90;;;;;;4995480;28;20458;-66
2021/07/10 05:31:33;;;;;;;61.77;22.83;;;15.80;99.90;;;;;;4995445;28;20481;-66
2021/07/10 05:33:59;;;;;;;22.50;20.27;;;16.00;99.90;;;;;;4995535;28;20794;-66
2021/07/10 05:36:26;;;;;;;65.20;23.00;;;16.20;99.90;;;;;;4995096;28;20465;-66
2021/07/10 05:38:53;;;;;;;37.47;23.10;;;16.30;99.90;;;;;;4995452;28;20457;-66
2021/07/10 05:41:21;;;;;;;24.13;21.80;;;16.20;99.90;;;;;;4995209;28;20474;-66
2021/07/10 05:43:49;;;;;;;24.47;22.17;;;16.40;99.90;;;;;;4997857;28;20477;-66
2021/07/10 05:46:15;;;;;;;23.97;21.97;;;16.50;99.90;;;;;;4995740;28;20458;-65
2021/07/10 05:48:42;;;;;;;23.47;21.37;;;16.60;99.90;;;;;;4994972;28;20816;-65
2021/07/10 05:51:09;;;;;;;24.40;22.20;;;16.50;99.90;;;;;;4994990;28;20488;-66
2021/07/10 05:53:35;;;;;;;25.17;22.87;;;16.50;99.90;;;;;;4995043;28;20481;-65
2021/07/10 05:56:02;;;;;;;21.07;19.33;;;16.50;99.90;;;;;;4994826;28;20482;-65
2021/07/10 05:58:29;;;;;;;22.73;20.73;;;16.70;99.90;;;;;;4994855;28;20458;-66
2021/07/10 06:00:57;;;;;;;22.70;20.70;;;16.70;99.90;;;;;;4994860;28;20481;-66
2021/07/10 06:03:24;;;;;;;22.43;20.23;;;16.80;99.90;;;;;;4995044;28;20449;-65
2021/07/10 06:05:50;;;;;;;20.50;18.90;;;16.90;99.90;;;;;;4994965;28;20453;-65
2021/07/10 06:08:17;;;;;;;20.40;18.70;;;17.00;99.90;;;;;;4994939;28;20466;-65
2021/07/10 06:10:44;;;;;;;19.07;17.50;;;17.10;99.90;;;;;;4994934;28;20480;-65
2021/07/10 06:13:11;;;;;;;19.20;17.57;;;17.30;99.90;;;;;;4994790;28;20453;-65
2021/07/10 06:15:37;;;;;;;18.40;16.73;;;17.30;99.90;;;;;;4994405;28;20489;-65
2021/07/10 06:18:06;;;;;;;18.20;16.80;;;17.40;99.90;;;;;;4994336;28;20453;-65
2021/07/10 06:20:34;;;;;;;17.17;15.87;;;17.50;99.90;;;;;;4994641;28;20506;-65
2021/07/10 06:23:04;;;;;;;18.80;17.30;;;17.60;99.90;;;;;;4994630;28;20540;-65
2021/07/10 06:25:32;;;;;;;19.27;17.47;;;17.70;99.90;;;;;;4994318;28;20920;-65
2021/07/10 06:27:58;;;;;;;18.00;16.70;;;17.80;99.90;;;;;;4994483;28;20799;-65
2021/07/10 06:30:25;;;;;;;18.23;16.67;;;17.70;99.90;;;;;;4994303;28;20461;-66
2021/07/10 06:32:52;;;;;;;16.73;15.40;;;17.70;99.90;;;;;;4994526;28;20465;-65
2021/07/10 06:35:20;;;;;;;16.93;15.17;;;18.00;99.90;;;;;;4994356;28;20477;-65
2021/07/10 06:37:47;;;;;;;16.10;14.70;;;18.10;99.90;;;;;;4994241;28;20949;-65
2021/07/10 06:40:15;;;;;;;16.10;14.77;;;18.30;99.90;;;;;;4994418;28;20457;-65
2021/07/10 06:42:42;;;;;;;14.90;13.60;;;18.50;99.90;;;;;;4994504;28;20458;-65
2021/07/10 06:45:14;;;;;;;15.00;13.80;;;18.70;99.90;;;;;;4994437;28;20456;-65
2021/07/10 06:47:42;;;;;;;13.20;12.20;;;18.90;99.90;;;;;;4994750;28;20446;-66
2021/07/10 06:50:11;;;;;;;15.23;13.90;;;19.00;99.90;;;;;;4994398;28;20509;-65
2021/07/10 06:52:39;;;;;;;13.70;12.60;;;19.00;99.90;;;;;;4994414;28;20461;-65
2021/07/10 06:55:09;;;;;;;12.50;11.50;;;19.30;99.90;;;;;;4994130;28;20992;-65
2021/07/10 06:57:36;;;;;;;12.80;11.70;;;19.80;99.90;;;;;;4994373;28;20461;-66
2021/07/10 07:00:05;;;;;;;11.00;10.17;;;20.20;99.90;;;;;;4994379;28;20458;-66
2021/07/10 07:02:31;;;;;;;10.17;9.37;;;20.80;99.90;;;;;;4993870;28;20481;-66
2021/07/10 07:04:58;;;;;;;9.20;8.50;;;21.50;99.90;;;;;;4994257;28;20461;-66
2021/07/10 07:07:25;;;;;;;9.60;8.80;;;22.20;99.90;;;;;;4994252;28;20464;-66
2021/07/10 07:09:53;;;;;;;9.27;8.60;;;23.00;99.90;;;;;;4994244;28;20458;-66
2021/07/10 07:12:19;;;;;;;9.80;9.00;;;23.80;99.90;;;;;;4994509;28;20985;-67
2021/07/10 07:14:46;;;;;;;7.60;7.10;;;24.40;99.90;;;;;;4998643;28;20556;-66
2021/07/10 07:17:13;;;;;;;8.57;7.80;;;24.90;99.90;;;;;;4996387;28;20472;-66
2021/07/10 07:19:40;;;;;;;7.87;7.27;;;25.50;99.90;;;;;;4994536;28;20541;-66
2021/07/10 07:22:07;;;;;;;7.20;6.63;;;25.70;99.90;;;;;;4994258;28;20481;-66
2021/07/10 07:24:33;;;;;;;7.43;7.00;;;26.10;99.90;;;;;;4994625;28;20462;-66
2021/07/10 07:27:01;;;;;;;8.50;7.93;;;26.50;99.90;;;;;;4993819;28;20512;-66
2021/07/10 07:29:28;;;;;;;7.90;7.40;;;26.80;99.90;;;;;;4996725;28;20457;-66
2021/07/10 07:31:55;;;;;;;8.80;8.23;;;26.90;99.90;;;;;;4997533;28;20477;-66
2021/07/10 07:34:22;;;;;;;8.47;7.97;;;27.10;99.90;;;;;;4997522;28;20983;-66
2021/07/10 07:36:48;;;;;;;7.70;7.00;;;27.00;99.90;;;;;;4997722;28;20464;-66
2021/07/10 07:39:16;;;;;;;7.27;6.77;;;27.40;99.90;;;;;;4997988;28;20465;-66
2021/07/10 07:41:43;;;;;;;8.50;7.70;;;27.80;99.90;;;;;;4998166;28;20474;-66
2021/07/10 07:44:11;;;;;;;6.37;5.97;;;28.10;99.90;;;;;;4997777;28;20457;-66
2021/07/10 07:46:37;;;;;;;8.13;7.53;;;28.30;99.90;;;;;;4997122;28;20504;-66
2021/07/10 07:49:04;;;;;;;8.17;7.47;;;28.30;99.90;;;;;;4997235;28;20484;-66
2021/07/10 07:51:31;;;;;;;8.50;7.90;;;27.60;99.90;;;;;;4997080;28;20512;-66
2021/07/10 07:53:58;;;;;;;8.30;7.60;;;27.20;99.90;;;;;;4997114;28;20458;-66
2021/07/10 07:56:25;;;;;;;7.90;7.40;;;27.50;99.90;;;;;;4997397;28;20454;-66
2021/07/10 07:58:53;;;;;;;7.53;6.93;;;27.70;99.90;;;;;;4997029;28;20458;-66
2021/07/10 08:01:21;;;;;;;7.57;7.00;;;28.10;99.90;;;;;;4996638;28;21003;-66
2021/07/10 08:03:48;;;;;;;6.13;5.63;;;28.50;99.90;;;;;;4996839;28;20460;-66
2021/07/10 08:06:15;;;;;;;8.20;6.20;;;28.70;99.70;;;;;;4997049;28;20454;-66
2021/07/10 08:08:42;;;;;;;6.70;6.03;;;28.90;99.90;;;;;;4997023;28;20462;-66
2021/07/10 08:11:10;;;;;;;5.53;5.10;;;29.30;98.50;;;;;;4996966;28;20484;-66
2021/07/10 08:13:37;;;;;;;7.00;6.40;;;29.30;98.60;;;;;;4997045;28;20458;-66
2021/07/10 08:16:04;;;;;;;6.53;6.03;;;29.60;96.50;;;;;;4996727;28;20484;-67
2021/07/10 08:18:32;;;;;;;6.70;6.30;;;29.90;95.50;;;;;;4997193;28;20489;-66
2021/07/10 08:20:59;;;;;;;6.73;6.07;;;29.30;94.80;;;;;;4996986;28;20482;-66
2021/07/10 08:23:26;;;;;;;7.57;7.07;;;28.90;95.20;;;;;;4996998;28;20450;-66
2021/07/10 08:25:52;;;;;;;6.83;6.43;;;28.50;96.60;;;;;;4996761;28;20484;-66
2021/07/10 08:28:19;;;;;;;6.00;5.47;;;28.70;97.40;;;;;;4997042;28;20461;-66
2021/07/10 08:30:46;;;;;;;5.80;5.50;;;28.80;97.50;;;;;;4996691;28;20474;-67
2021/07/10 08:33:13;;;;;;;6.07;5.60;;;28.90;96.60;;;;;;4996425;28;20465;-66
2021/07/10 08:35:41;;;;;;;6.13;5.80;;;28.70;95.60;;;;;;4996421;28;20516;-66
2021/07/10 08:38:09;;;;;;;6.20;5.57;;;28.90;96.30;;;;;;4996546;28;20512;-66
2021/07/10 08:40:36;;;;;;;5.63;5.13;;;28.70;95.30;;;;;;4996570;28;20470;-65
2021/07/10 08:43:03;;;;;;;6.17;5.77;;;29.00;96.30;;;;;;4996836;28;20858;-65
2021/07/10 08:45:33;;;;;;;6.53;6.00;;;29.30;94.10;;;;;;4999193;28;20465;-66
2021/07/10 08:48:01;;;;;;;5.23;4.93;;;29.80;94.30;;;;;;4999213;28;20476;-66
2021/07/10 08:50:28;;;;;;;4.50;4.20;;;30.30;92.40;;;;;;4996537;28;20461;-66
2021/07/10 08:52:57;;;;;;;4.80;4.50;;;30.70;91.70;;;;;;4996299;28;20512;-66
2021/07/10 08:55:23;;;;;;;6.80;4.17;;;31.00;90.20;;;;;;4996469;28;20477;-66
2021/07/10 08:57:51;;;;;;;4.47;4.17;;;31.20;90.10;;;;;;4997926;28;20462;-66
2021/07/10 09:00:21;;;;;;;5.73;5.20;;;31.40;88.50;;;;;;4996223;28;20457;-67
2021/07/10 09:02:49;;;;;;;5.20;4.83;;;31.70;87.10;;;;;;4997082;28;20441;-67
2021/07/10 09:05:16;;;;;;;4.80;4.33;;;31.30;86.60;;;;;;4996507;28;20462;-67
2021/07/10 09:08:13;;;;;;;4.40;4.10;;;31.70;83.60;;;;;;4998238;28;20458;-67
2021/07/10 09:10:42;;;;;;;4.30;4.10;;;31.60;80.00;;;;;;5006101;28;20880;-67
2021/07/10 09:13:09;;;;;;;4.17;3.63;;;31.40;82.50;;;;;;5002579;28;20461;-67
2021/07/10 09:15:36;;;;;;;4.50;4.10;;;31.70;78.80;;;;;;4996833;28;20488;-66
2021/07/10 09:18:06;;;;;;;4.07;3.77;;;32.00;84.10;;;;;;4996044;28;20458;-66
2021/07/10 09:20:32;;;;;;;4.20;3.90;;;32.20;77.90;;;;;;4996067;28;20551;-66
2021/07/10 09:22:59;;;;;;;5.50;5.20;;;32.20;77.40;;;;;;4995761;28;20453;-67
2021/07/10 09:25:29;;;;;;;4.23;3.97;;;32.40;73.70;;;;;;4996049;28;20465;-67
2021/07/10 09:27:58;;;;;;;3.90;3.70;;;32.30;79.00;;;;;;4995932;28;20472;-67
2021/07/10 09:30:33;;;;;;;3.20;3.00;;;32.40;77.20;;;;;;4995365;28;20449;-67
2021/07/10 09:33:18;;;;;;;3.10;2.90;;;32.60;74.60;;;;;;4995119;28;20453;-67
2021/07/10 09:35:55;;;;;;;3.70;3.50;;;32.80;71.30;;;;;;4995509;28;20472;-66
2021/07/10 09:38:25;;;;;;;3.37;3.07;;;32.50;72.60;;;;;;4995420;28;20457;-67
2021/07/10 09:41:05;;;;;;;3.37;3.17;;;32.80;69.90;;;;;;4994991;28;20885;-67
2021/07/10 09:43:33;;;;;;;3.17;2.97;;;32.50;68.10;;;;;;4995433;28;20444;-66
2021/07/10 09:46:02;;;;;;;3.50;3.30;;;32.60;68.80;;;;;;4995304;28;20454;-66
2021/07/10 09:48:30;;;;;;;3.10;3.00;;;32.80;66.50;;;;;;4995476;28;20496;-66
2021/07/10 09:51:16;;;;;;;3.20;3.10;;;33.10;64.50;;;;;;4994364;28;20477;-66
2021/07/10 09:53:57;;;;;;;3.53;3.33;;;32.50;66.70;;;;;;4995089;28;20957;-66
2021/07/10 09:56:25;;;;;;;5.70;3.43;;;32.10;68.80;;;;;;4995162;28;20795;-66
2021/07/10 09:58:52;;;;;;;2.87;2.77;;;31.90;66.80;;;;;;4995039;28;20819;-66
2021/07/10 10:01:33;;;;;;;3.27;3.03;;;32.40;66.10;;;;;;4994519;28;20485;-66
2021/07/10 10:04:01;;;;;;;2.80;2.70;;;32.90;65.20;;;;;;4995101;28;20465;-66
2021/07/10 10:06:32;;;;;;;3.07;2.80;;;33.00;71.50;;;;;;4995048;28;20458;-66
2021/07/10 10:08:59;;;;;;;3.30;2.80;;;33.50;66.70;;;;;;4995228;28;20446;-66
2021/07/10 10:11:49;;;;;;;3.00;2.80;;;33.90;62.20;;;;;;4994624;28;20984;-66
2021/07/10 10:14:17;;;;;;;3.40;3.30;;;34.10;60.00;;;;;;4997085;28;20436;-67
2021/07/10 10:16:46;;;;;;;3.67;3.37;;;33.70;64.70;;;;;;4999741;28;20477;-66
2021/07/10 10:19:15;;;;;;;3.47;3.17;;;33.90;66.90;;;;;;5001038;28;20446;-67
2021/07/10 10:21:42;;;;;;;3.00;2.90;;;33.80;64.40;;;;;;4994844;28;20501;-67
2021/07/10 10:24:10;;;;;;;3.70;3.47;;;34.30;59.90;;;;;;4995191;28;20450;-66
2021/07/10 10:26:38;;;;;;;3.40;3.20;;;34.30;60.50;;;;;;4994705;28;20936;-67
2021/07/10 10:29:07;;;;;;;3.67;3.47;;;34.30;59.20;;;;;;4995396;28;20457;-67
2021/07/10 10:31:34;;;;;;;3.67;3.57;;;34.10;62.20;;;;;;4994319;28;20996;-67
2021/07/10 10:34:01;;;;;;;3.40;3.20;;;33.70;63.10;;;;;;4994296;28;20456;-66
2021/07/10 10:36:28;;;;;;;3.87;3.67;;;33.30;65.10;;;;;;4994834;28;20480;-66
2021/07/10 10:38:55;;;;;;;3.70;3.40;;;32.80;65.70;;;;;;4994697;28;20628;-66
2021/07/10 10:41:22;;;;;;;4.07;3.77;;;32.30;64.40;;;;;;4994563;28;20840;-66
2021/07/10 10:43:55;;;;;;;3.43;3.23;;;32.20;68.90;;;;;;4997403;28;20461;-66
2021/07/10 10:46:23;;;;;;;3.90;3.30;;;32.20;67.20;;;;;;4999329;28;20473;-66
2021/07/10 10:48:51;;;;;;;3.70;3.40;;;32.20;69.60;;;;;;4999284;28;20457;-66
2021/07/10 10:51:26;;;;;;;4.03;3.73;;;32.80;67.30;;;;;;4998236;28;20481;-66
2021/07/10 10:53:53;;;;;;;3.43;3.23;;;33.30;65.10;;;;;;4994375;28;20952;-66
2021/07/10 10:56:36;;;;;;;3.90;3.70;;;34.00;65.50;;;;;;4994501;28;20867;-66
2021/07/10 10:59:40;;;;;;;3.50;3.30;;;34.00;62.30;;;;;;4994369;28;20989;-66
2021/07/10 11:02:41;;;;;;;3.80;3.60;;;34.50;62.40;;;;;;4995073;28;20486;-67
2021/07/10 11:05:08;;;;;;;3.43;3.17;;;34.40;59.80;;;;;;4998484;28;20457;-66
2021/07/10 11:07:37;;;;;;;3.90;3.70;;;34.20;59.80;;;;;;4998250;28;20461;-66
2021/07/10 11:10:25;;;;;;;5.20;4.10;;;33.10;60.10;;;;;;4997877;28;20484;-66
2021/07/10 11:12:58;;;;;;;3.60;3.30;;;32.20;62.80;;;;;;4998241;28;20457;-66
2021/07/10 11:15:43;;;;;;;3.67;3.47;;;31.70;69.10;;;;;;4997682;28;20508;-66
2021/07/10 11:18:26;;;;;;;3.77;3.60;;;31.80;68.50;;;;;;4997731;28;20467;-66
2021/07/10 11:20:53;;;;;;;3.57;3.47;;;31.50;71.10;;;;;;4998352;28;20484;-66
2021/07/10 11:23:30;;;;;;;4.17;3.97;;;31.90;67.70;;;;;;4998099;28;20457;-66
2021/07/10 11:26:15;;;;;;;4.77;4.47;;;31.80;66.00;;;;;;4997869;28;20445;-66
2021/07/10 11:28:51;;;;;;;3.70;3.53;;;31.80;65.50;;;;;;4997937;28;20442;-66
2021/07/10 11:31:24;;;;;;;3.77;3.57;;;31.90;69.60;;;;;;4997413;28;20963;-66
2021/07/10 11:34:00;;;;;;;3.47;3.27;;;31.30;73.30;;;;;;4998035;28;20445;-66
2021/07/10 11:36:55;;;;;;;4.30;4.10;;;31.50;67.20;;;;;;4998306;28;20496;-66
2021/07/10 11:39:57;;;;;;;3.60;3.30;;;31.30;67.40;;;;;;4997658;28;20434;-66
2021/07/10 11:42:47;;;;;;;3.50;3.30;;;30.70;66.30;;;;;;4997615;28;20492;-66
2021/07/10 11:45:48;;;;;;;3.50;3.30;;;30.60;72.50;;;;;;4997571;28;20438;-66
2021/07/10 11:48:26;;;;;;;3.00;2.90;;;30.60;69.30;;;;;;5000937;28;20796;-66
2021/07/10 11:51:07;;;;;;;3.10;2.90;;;30.50;71.90;;;;;;4999897;28;20474;-66
2021/07/10 11:53:34;;;;;;;6.30;3.17;;;30.60;72.90;;;;;;4997765;28;20460;-66
2021/07/10 11:56:01;;;;;;;3.70;3.50;;;30.40;76.60;;;;;;4997148;28;20601;-66
2021/07/10 11:58:29;;;;;;;3.50;3.30;;;30.60;73.80;;;;;;4997286;28;20458;-66
2021/07/10 12:01:01;;;;;;;3.40;3.30;;;30.10;71.90;;;;;;4997054;28;20486;-66
2021/07/10 12:03:29;;;;;;;3.43;3.23;;;30.30;70.90;;;;;;4997165;28;20460;-66
2021/07/10 12:05:58;;;;;;;3.47;3.27;;;30.30;71.60;;;;;;4997199;28;20459;-66
2021/07/10 12:08:25;;;;;;;3.10;3.00;;;30.10;74.60;;;;;;4997366;28;20545;-67
2021/07/10 12:10:54;;;;;;;3.20;3.00;;;30.00;70.10;;;;;;4996851;28;20473;-67
2021/07/10 12:13:23;;;;;;;2.97;2.87;;;30.00;68.10;;;;;;4997050;28;20458;-67
2021/07/10 12:15:51;;;;;;;2.57;2.47;;;30.10;68.10;;;;;;4997172;28;20499;-66
2021/07/10 12:18:19;;;;;;;3.40;2.93;;;30.20;62.50;;;;;;4997664;28;20948;-66
2021/07/10 12:20:48;;;;;;;5.63;3.77;;;29.60;66.00;;;;;;5000407;28;20506;-67
2021/07/10 12:23:17;;;;;;;3.47;3.37;;;29.70;73.40;;;;;;5002617;28;21008;-67
2021/07/10 12:25:48;;;;;;;3.47;3.27;;;29.60;71.50;;;;;;5000152;28;20474;-66
2021/07/10 12:28:15;;;;;;;3.23;3.00;;;29.50;68.20;;;;;;4996870;28;20448;-66
2021/07/10 12:30:49;;;;;;;3.60;3.40;;;29.40;71.60;;;;;;4996583;28;20484;-67
2021/07/10 12:33:37;;;;;;;3.70;3.50;;;29.50;72.30;;;;;;4996548;28;20445;-67
2021/07/10 12:36:15;;;;;;;6.17;3.43;;;29.40;69.50;;;;;;4996734;28;20462;-66
2021/07/10 12:39:10;;;;;;;3.20;3.00;;;29.50;70.20;;;;;;4996711;28;20496;-67
2021/07/10 12:41:46;;;;;;;3.40;2.90;;;29.80;70.10;;;;;;4995124;28;20474;-67
2021/07/10 12:44:22;;;;;;;3.83;2.83;;;29.70;71.40;;;;;;4996506;28;20437;-67
2021/07/10 12:46:53;;;;;;;3.53;3.17;;;29.60;69.50;;;;;;4996550;28;20441;-67
2021/07/10 12:49:21;;;;;;;3.17;2.97;;;29.80;71.30;;;;;;4996336;28;20438;-67
2021/07/10 12:51:50;;;;;;;3.40;3.10;;;29.80;71.80;;;;;;4996145;28;20470;-67
2021/07/10 12:54:37;;;;;;;3.03;2.93;;;29.80;72.70;;;;;;4996412;28;20450;-67
2021/07/10 12:57:32;;;;;;;3.40;3.10;;;29.80;68.80;;;;;;4996287;28;20573;-67
2021/07/10 13:00:02;;;;;;;3.00;2.80;;;29.70;69.50;;;;;;4972637;28;20449;-67
2021/07/10 13:02:33;;;;;;;2.83;2.63;;;30.00;75.40;;;;;;4995588;28;20474;-67
2021/07/10 13:05:03;;;;;;;3.60;3.40;;;30.40;74.10;;;;;;4996311;28;20449;-67
2021/07/10 13:07:32;;;;;;;3.20;3.00;;;30.20;71.10;;;;;;4995994;28;20814;-67
2021/07/10 13:10:00;;;;;;;3.17;2.97;;;30.30;67.20;;;;;;4996067;28;20450;-66
2021/07/10 13:12:46;;;;;;;3.10;3.00;;;30.10;69.60;;;;;;4996217;28;20469;-66
2021/07/10 13:15:15;;;;;;;3.40;3.20;;;30.20;73.30;;;;;;4996132;28;20446;-66
2021/07/10 13:17:42;;;;;;;3.40;3.30;;;29.90;68.60;;;;;;4996823;28;20504;-66
2021/07/10 13:20:30;;;;;;;3.53;3.33;;;29.50;69.50;;;;;;4999718;28;20458;-66
2021/07/10 13:22:58;;;;;;;3.80;3.60;;;29.40;71.70;;;;;;4995731;28;20461;-66
2021/07/10 13:25:33;;;;;;;3.70;3.50;;;29.30;69.10;;;;;;4995340;28;20465;-66
2021/07/10 13:28:20;;;;;;;3.10;2.93;;;28.90;69.10;;;;;;4995491;28;20433;-65
2021/07/10 13:30:47;;;;;;;4.70;3.20;;;28.60;71.00;;;;;;4995165;28;20477;-67
2021/07/10 13:33:13;;;;;;;3.30;3.10;;;28.50;73.70;;;;;;4995231;28;20458;-66
2021/07/10 13:35:40;;;;;;;3.57;3.40;;;28.50;75.50;;;;;;4995493;28;20461;-67
2021/07/10 13:38:15;;;;;;;3.27;3.07;;;28.50;72.20;;;;;;4995733;28;20465;-67
2021/07/10 13:40:42;;;;;;;3.50;3.23;;;28.80;73.70;;;;;;4995339;28;20472;-67
2021/07/10 13:43:09;;;;;;;3.60;3.40;;;28.60;72.20;;;;;;4995520;28;20513;-67
2021/07/10 13:45:35;;;;;;;3.10;2.90;;;28.60;72.20;;;;;;4995156;28;20453;-66
2021/07/10 13:48:13;;;;;;;3.07;2.97;;;28.50;71.70;;;;;;4995425;28;20469;-66
2021/07/10 13:50:41;;;;;;;3.90;3.70;;;28.50;73.00;;;;;;4994746;28;20826;-66
2021/07/10 13:53:18;;;;;;;8.90;8.10;;;28.30;71.00;;;;;;4995216;28;20465;-66
2021/07/10 13:55:46;;;;;;;4.63;4.30;;;28.30;73.40;;;;;;4995624;28;20457;-66
2021/07/10 13:58:27;;;;;;;4.10;3.90;;;28.30;74.30;;;;;;4995219;28;21023;-66
2021/07/10 14:00:54;;;;;;;3.93;3.73;;;28.30;73.10;;;;;;4995674;28;20485;-66
2021/07/10 14:03:21;;;;;;;3.60;3.30;;;28.00;74.40;;;;;;4994769;28;20821;-67
2021/07/10 14:05:48;;;;;;;3.47;3.27;;;27.90;73.40;;;;;;4994840;28;20461;-65
2021/07/10 14:08:19;;;;;;;3.13;2.93;;;27.80;74.50;;;;;;4994986;28;20446;-66
2021/07/10 14:10:48;;;;;;;5.40;3.13;;;27.80;76.40;;;;;;4994981;28;20474;-65
2021/07/10 14:13:18;;;;;;;3.27;3.07;;;27.70;73.80;;;;;;4995061;28;20484;-65
2021/07/10 14:15:46;;;;;;;2.83;2.70;;;27.70;74.80;;;;;;4995005;28;20460;-67
2021/07/10 14:18:14;;;;;;;3.23;3.13;;;27.60;77.00;;;;;;4994839;28;20899;-67
2021/07/10 14:20:41;;;;;;;2.97;2.87;;;27.70;77.00;;;;;;4995170;28;20473;-66
2021/07/10 14:23:08;;;;;;;3.70;3.50;;;27.90;79.30;;;;;;4994720;28;20464;-66
2021/07/10 14:25:36;;;;;;;3.43;3.20;;;27.90;77.90;;;;;;4994881;28;20450;-66
2021/07/10 14:28:04;;;;;;;3.37;3.17;;;28.10;79.70;;;;;;4994578;28;20453;-66
2021/07/10 14:30:32;;;;;;;3.80;3.60;;;28.10;74.80;;;;;;4994649;28;20457;-66
2021/07/10 14:33:01;;;;;;;4.40;2.97;;;28.30;75.60;;;;;;4994669;28;20450;-66
2021/07/10 14:35:29;;;;;;;3.00;2.90;;;28.60;75.50;;;;;;4994380;28;20971;-67
2021/07/10 14:37:56;;;;;;;3.10;2.90;;;28.80;72.20;;;;;;4996419;28;20484;-66
2021/07/10 14:40:26;;;;;;;3.90;3.70;;;28.90;71.20;;;;;;4998561;28;20453;-66
2021/07/10 14:42:55;;;;;;;2.67;2.57;;;29.00;72.40;;;;;;4998402;28;20971;-66
2021/07/10 14:45:22;;;;;;;3.10;2.90;;;28.90;71.60;;;;;;4998446;28;20476;-66
2021/07/10 14:47:49;;;;;;;3.20;2.93;;;28.80;72.20;;;;;;4997993;28;20841;-66
2021/07/10 14:50:17;;;;;;;3.30;3.20;;;28.90;73.50;;;;;;4998286;28;20485;-66
2021/07/10 14:52:46;;;;;;;3.10;2.90;;;28.80;72.50;;;;;;4998445;28;20957;-67
2021/07/10 14:55:14;;;;;;;3.00;2.90;;;28.90;73.70;;;;;;4998371;28;21060;-67
2021/07/10 14:57:41;;;;;;;3.10;2.90;;;28.90;74.00;;;;;;4998001;28;21050;-67
2021/07/10 15:00:12;;;;;;;3.77;3.57;;;29.00;71.30;;;;;;4998250;28;20458;-67
2021/07/10 15:02:39;;;;;;;2.97;2.87;;;28.90;70.90;;;;;;4998183;28;20469;-67
2021/07/10 15:05:07;;;;;;;3.50;3.17;;;28.90;71.30;;;;;;4998133;28;20456;-67
2021/07/10 15:07:33;;;;;;;3.00;2.80;;;29.00;71.60;;;;;;4997883;28;20441;-67
2021/07/10 15:10:00;;;;;;;3.33;3.13;;;29.20;72.90;;;;;;4998739;28;20449;-67
2021/07/10 15:12:27;;;;;;;3.00;2.90;;;29.20;72.40;;;;;;4998825;28;20469;-67
2021/07/10 15:14:54;;;;;;;2.80;2.70;;;29.10;71.20;;;;;;4998263;28;20454;-66
2021/07/10 15:17:22;;;;;;;3.00;2.80;;;28.90;73.40;;;;;;4998342;28;20478;-66
2021/07/10 15:19:49;;;;;;;3.07;2.87;;;28.70;71.60;;;;;;4998127;28;20457;-66
2021/07/10 15:22:16;;;;;;;2.70;2.60;;;28.70;70.70;;;;;;4998048;28;20474;-66
2021/07/10 15:24:43;;;;;;;2.80;2.70;;;28.60;72.10;;;;;;4998004;28;20454;-66
2021/07/10 15:27:09;;;;;;;3.20;2.90;;;28.80;72.50;;;;;;4997786;28;20446;-66
2021/07/10 15:29:36;;;;;;;2.80;2.70;;;28.90;74.20;;;;;;4999480;28;20456;-66
2021/07/10 15:32:03;;;;;;;3.37;3.17;;;28.80;70.80;;;;;;4997474;28;20480;-67
2021/07/10 15:34:32;;;;;;;3.10;3.00;;;28.90;71.30;;;;;;5002795;28;20815;-67
2021/07/10 15:36:59;;;;;;;3.30;3.10;;;28.70;71.90;;;;;;4997966;28;20477;-67
2021/07/10 15:39:25;;;;;;;3.57;3.27;;;28.80;71.40;;;;;;4997956;28;20453;-67
2021/07/10 15:41:52;;;;;;;4.13;3.93;;;28.70;71.40;;;;;;4997776;28;20470;-66
2021/07/10 15:44:19;;;;;;;3.97;3.73;;;28.60;71.90;;;;;;4997424;28;20462;-66
2021/07/10 15:46:45;;;;;;;5.77;5.30;;;28.50;74.20;;;;;;4997527;28;20450;-66
2021/07/10 15:49:13;;;;;;;4.70;4.10;;;28.30;72.50;;;;;;4996395;28;20512;-66
2021/07/10 15:51:41;;;;;;;3.13;2.90;;;28.30;73.50;;;;;;4997094;28;20477;-66
2021/07/10 15:54:10;;;;;;;3.23;3.03;;;28.30;71.50;;;;;;4997362;28;20462;-66
2021/07/10 15:56:37;;;;;;;3.50;3.30;;;28.10;71.70;;;;;;4997182;28;20469;-66
2021/07/10 15:59:08;;;;;;;5.83;5.23;;;28.10;74.30;;;;;;4997106;28;20461;-66
2021/07/10 16:01:34;;;;;;;6.40;4.17;;;28.20;74.20;;;;;;4996555;28;21036;-67
2021/07/10 16:04:01;;;;;;;8.70;4.57;;;28.00;72.90;;;;;;4997251;28;20535;-67
2021/07/10 16:06:29;;;;;;;4.60;4.30;;;27.80;73.90;;;;;;4997134;28;20588;-67
2021/07/10 16:08:57;;;;;;;4.60;4.30;;;27.80;73.80;;;;;;4996712;28;20937;-67
2021/07/10 16:11:24;;;;;;;6.00;5.50;;;27.60;73.80;;;;;;4996869;28;20552;-67
2021/07/10 16:13:50;;;;;;;4.90;4.60;;;27.50;74.50;;;;;;4996898;28;20442;-67
2021/07/10 16:16:17;;;;;;;3.43;3.30;;;27.50;74.80;;;;;;4996999;28;20454;-66
2021/07/10 16:18:44;;;;;;;4.67;3.80;;;27.40;73.80;;;;;;4996757;28;20478;-66
2021/07/10 16:21:11;;;;;;;2.30;2.27;;;27.40;74.00;;;;;;4996795;28;20477;-66
2021/07/10 16:23:38;;;;;;;4.50;3.20;;;27.60;74.20;;;;;;4996677;28;20937;-66
2021/07/10 16:26:06;;;;;;;6.33;5.83;;;27.60;72.90;;;;;;4996733;28;20462;-66
2021/07/10 16:28:33;;;;;;;2.70;2.60;;;27.70;73.10;;;;;;4996745;28;20453;-66
2021/07/10 16:31:00;;;;;;;2.80;2.70;;;27.70;70.90;;;;;;4996138;28;20528;-67
2021/07/10 16:33:27;;;;;;;2.90;2.80;;;27.80;74.00;;;;;;4996836;28;20479;-67
2021/07/10 16:35:53;;;;;;;3.07;2.73;;;27.90;72.30;;;;;;4996811;28;20457;-66
2021/07/10 16:38:20;;;;;;;2.67;2.57;;;27.90;71.20;;;;;;4996516;28;20478;-66
2021/07/10 16:40:47;;;;;;;2.90;2.70;;;28.00;72.20;;;;;;4996246;28;20868;-66
2021/07/10 16:43:15;;;;;;;3.20;3.00;;;28.10;71.80;;;;;;4996399;28;20457;-66
2021/07/10 16:45:42;;;;;;;2.50;2.40;;;28.10;72.60;;;;;;4996527;28;20457;-66
2021/07/10 16:48:09;;;;;;;2.70;2.60;;;28.00;72.60;;;;;;4996501;28;20450;-66
2021/07/10 16:50:37;;;;;;;2.73;2.60;;;27.90;72.50;;;;;;4996180;28;20977;-67
2021/07/10 16:53:05;;;;;;;13.53;3.03;;;27.70;71.80;;;;;;4996242;28;20468;-67